Time;durP1;ratioP1;P1;durP2;ratioP2;P2;SDS_P1;SDS_P2;PMS_P1;PMS_P2;Temp;Humidity;BMP_temperature;BMP_pressure;BME280_temperature;BME280_humidity;BME280_pressure;Samples;Min_cycle;Max_cycle;Signal;HPM_P1;HPM_P2
2022/12/17 13:06:56;;;;;;;46.33;20.60;;;2.20;99.90;;;;;;5046993;28;20295;-73
2022/12/17 13:09:25;;;;;;;50.53;20.92;;;2.50;99.90;;;;;;5048692;28;20037;-74
2022/12/17 13:11:55;;;;;;;39.78;17.65;;;2.20;99.90;;;;;;5048400;28;20111;-74
2022/12/17 13:14:27;;;;;;;49.20;20.52;;;2.10;99.90;;;;;;5032067;28;20521;-74
2022/12/17 13:16:54;;;;;;;46.22;21.30;;;2.40;99.90;;;;;;5031676;28;20444;-75
2022/12/17 13:19:36;;;;;;;42.63;17.73;;;2.00;99.90;;;;;;5048382;28;20114;-75
2022/12/17 13:22:14;;;;;;;46.78;19.40;;;2.00;99.90;;;;;;5029759;28;20043;-75
2022/12/17 13:24:41;;;;;;;54.92;23.35;;;1.90;99.90;;;;;;5028918;28;20041;-74
2022/12/17 13:27:37;;;;;;;50.60;21.35;;;1.80;99.90;;;;;;5048393;28;20042;-75
2022/12/17 13:30:20;;;;;;;50.85;20.77;;;1.60;99.90;;;;;;5030585;28;20049;-74
2022/12/17 13:32:52;;;;;;;56.60;22.95;;;1.50;99.90;;;;;;5048023;28;20600;-75
2022/12/17 13:35:42;;;;;;;50.03;20.83;;;1.60;99.90;;;;;;5029411;28;20052;-74
2022/12/17 13:38:14;;;;;;;50.53;19.25;;;1.70;99.90;;;;;;5029189;28;20097;-74
2022/12/17 13:40:47;;;;;;;47.95;18.40;;;1.70;99.90;;;;;;5047479;28;20073;-75
2022/12/17 13:43:19;;;;;;;51.42;22.63;;;1.70;99.90;;;;;;5029221;28;20121;-75
2022/12/17 13:45:45;;;;;;;49.42;21.63;;;1.70;99.90;;;;;;5047991;28;20045;-75
2022/12/17 13:48:21;;;;;;;52.85;21.75;;;1.90;99.90;;;;;;5031311;28;20040;-74
2022/12/17 13:51:03;;;;;;;55.55;22.98;;;1.80;99.90;;;;;;5031071;28;20061;-76
2022/12/17 13:53:33;;;;;;;53.38;21.70;;;1.80;99.90;;;;;;5014805;28;20038;-76
2022/12/17 13:55:59;;;;;;;53.60;22.30;;;1.70;99.90;;;;;;5030175;28;20482;-75
2022/12/17 13:58:29;;;;;;;55.00;21.38;;;1.90;99.90;;;;;;5031499;28;20496;-74
2022/12/17 14:01:10;;;;;;;54.80;21.65;;;2.00;99.90;;;;;;5047770;28;20112;-75
2022/12/17 14:03:37;;;;;;;52.80;19.88;;;1.50;99.90;;;;;;5029440;28;20077;-76
2022/12/17 14:06:07;;;;;;;;;;;2.60;99.90;;;;;;5031424;28;20033;-75
2022/12/17 14:08:33;;;;;;;44.70;18.75;;;2.70;99.90;;;;;;5030940;28;19917;-76
2022/12/17 14:13:46;;;;;;;55.25;22.05;;;1.30;99.90;;;;;;5028951;28;20069;-75
2022/12/17 14:16:17;;;;;;;60.00;22.48;;;1.20;99.90;;;;;;5025965;28;20379;-75
2022/12/17 14:18:47;;;;;;;45.75;21.42;;;1.10;99.90;;;;;;5004219;28;20482;-76
2022/12/17 14:21:14;;;;;;;51.03;20.17;;;1.10;99.90;;;;;;5025526;28;20128;-75
2022/12/17 14:23:40;;;;;;;57.42;23.58;;;1.00;99.90;;;;;;5025174;28;20098;-75
2022/12/17 14:26:10;;;;;;;55.10;22.05;;;0.90;99.90;;;;;;5022855;28;20054;-75
2022/12/17 14:29:03;;;;;;;56.75;21.20;;;0.90;99.90;;;;;;5021976;28;20036;-75
2022/12/17 14:31:29;;;;;;;66.45;22.67;;;1.00;99.90;;;;;;5006620;28;20132;-75
2022/12/17 14:34:09;;;;;;;56.65;21.55;;;1.00;99.90;;;;;;5039458;28;20596;-75
2022/12/17 14:36:43;;;;;;;56.88;22.30;;;0.90;99.90;;;;;;5005772;28;20037;-75
2022/12/17 14:39:28;;;;;;;58.35;22.65;;;0.80;99.90;;;;;;5037019;28;20037;-75
2022/12/17 14:44:53;;;;;;;56.47;20.80;;;0.70;99.90;;;;;;5028268;28;20045;-75
2022/12/17 14:47:19;;;;;;;43.33;18.00;;;1.10;99.90;;;;;;5029511;28;20045;-74
2022/12/17 14:49:54;;;;;;;55.78;21.05;;;1.40;99.90;;;;;;5030270;28;20037;-75
2022/12/17 14:52:44;;;;;;;56.53;22.20;;;0.50;99.90;;;;;;5027872;28;20045;-75
2022/12/17 14:55:34;;;;;;;53.55;21.05;;;0.40;99.90;;;;;;5046735;28;20037;-74
2022/12/17 14:58:12;;;;;;;53.97;20.48;;;0.40;99.90;;;;;;5046616;28;20124;-75
2022/12/17 15:00:47;;;;;;;48.30;17.63;;;0.40;99.90;;;;;;5037048;28;20041;-75
2022/12/17 15:03:24;;;;;;;52.30;18.95;;;0.30;99.90;;;;;;5010004;28;20382;-75
2022/12/17 15:06:03;;;;;;;47.92;17.88;;;0.30;99.90;;;;;;5024635;28;20551;-76
2022/12/17 15:08:32;;;;;;;62.17;22.60;;;0.30;99.90;;;;;;5025974;28;20037;-74
2022/12/17 15:10:58;;;;;;;63.95;23.73;;;-0.30;99.90;;;;;;5028609;28;20118;-74
2022/12/17 15:13:23;;;;;;;59.03;22.55;;;0.20;99.90;;;;;;5029413;28;20143;-74
2022/12/17 15:15:49;;;;;;;60.03;20.10;;;0.00;99.90;;;;;;5045760;28;20049;-74
2022/12/17 15:18:15;;;;;;;50.17;19.63;;;0.50;99.90;;;;;;5012943;28;20371;-74
2022/12/17 15:20:41;;;;;;;66.33;24.47;;;0.00;99.90;;;;;;5012163;28;20280;-74
2022/12/17 15:23:17;;;;;;;55.00;22.08;;;0.00;99.90;;;;;;5029088;28;20304;-74
2022/12/17 15:25:43;;;;;;;62.70;24.17;;;-0.10;99.90;;;;;;5027090;28;20068;-74
2022/12/17 15:28:10;;;;;;;54.50;20.58;;;-0.10;99.90;;;;;;5028949;28;20037;-74
2022/12/17 15:30:35;;;;;;;46.25;19.63;;;-0.10;99.90;;;;;;5012994;28;20038;-75
2022/12/17 15:33:02;;;;;;;57.63;21.90;;;-0.20;99.90;;;;;;5028811;28;20402;-75
2022/12/17 15:35:30;;;;;;;57.13;21.55;;;-0.20;99.90;;;;;;5027271;28;20446;-74
2022/12/17 15:37:56;;;;;;;51.25;19.38;;;-0.20;99.90;;;;;;5028809;28;20129;-76
2022/12/17 15:40:21;;;;;;;61.37;22.73;;;-0.20;99.90;;;;;;5012955;28;20128;-75
2022/12/17 15:45:31;;;;;;;51.72;19.13;;;0.50;99.90;;;;;;5039085;28;20326;-74
2022/12/17 15:47:57;;;;;;;55.95;19.92;;;-0.30;99.90;;;;;;5031657;28;21245;-75
2022/12/17 15:50:22;;;;;;;57.73;21.23;;;-0.30;99.90;;;;;;5034178;28;20061;-76
2022/12/17 15:52:48;;;;;;;51.55;20.25;;;-0.40;99.90;;;;;;5027182;28;20046;-75
2022/12/17 15:55:14;;;;;;;50.47;17.83;;;-0.50;99.90;;;;;;5030895;28;20175;-74
2022/12/17 15:57:40;;;;;;;65.35;22.42;;;-0.40;99.90;;;;;;5029388;28;20045;-74
2022/12/17 16:00:06;;;;;;;52.72;19.27;;;-0.60;99.90;;;;;;5027808;28;20102;-75
2022/12/17 16:02:32;;;;;;;64.82;20.50;;;-0.70;99.90;;;;;;5029808;28;20072;-75
2022/12/17 16:04:58;;;;;;;66.65;20.77;;;-0.80;99.90;;;;;;5048336;28;20069;-75
2022/12/17 16:07:23;;;;;;;35.80;15.52;;;-0.80;99.90;;;;;;5029186;28;20033;-74
2022/12/17 16:09:49;;;;;;;69.35;22.63;;;-0.90;99.90;;;;;;5026680;28;20037;-73
2022/12/17 16:12:15;;;;;;;48.63;20.10;;;-0.90;99.90;;;;;;5048533;28;20049;-73
2022/12/17 16:14:40;;;;;;;49.97;17.87;;;-0.80;99.90;;;;;;5029048;28;20296;-73
2022/12/17 16:17:06;;;;;;;50.13;18.43;;;-0.80;99.90;;;;;;5049637;28;20288;-73
2022/12/17 16:19:33;;;;;;;71.50;21.67;;;-0.80;99.90;;;;;;5033352;28;20330;-73
2022/12/17 16:21:58;;;;;;;56.90;19.45;;;0.20;99.90;;;;;;5030089;28;20803;-72
2022/12/17 16:24:24;;;;;;;68.90;21.65;;;0.60;99.90;;;;;;5032352;28;20041;-74
2022/12/17 16:26:49;;;;;;;45.00;17.80;;;-1.00;99.90;;;;;;5030229;28;20037;-75
2022/12/17 16:29:15;;;;;;;48.88;20.35;;;-1.00;99.90;;;;;;5047942;28;20183;-76
2022/12/17 16:31:41;;;;;;;59.17;18.92;;;-1.00;99.90;;;;;;5049701;28;20049;-76
2022/12/17 16:34:09;;;;;;;45.47;15.63;;;-0.90;99.90;;;;;;5042505;28;20490;-77
2022/12/17 16:36:35;;;;;;;61.15;19.63;;;-1.00;99.90;;;;;;5027003;28;20041;-77
2022/12/17 16:39:01;;;;;;;57.97;20.17;;;-1.00;99.90;;;;;;5031616;28;20100;-75
2022/12/17 16:41:26;;;;;;;61.80;21.30;;;-0.90;99.90;;;;;;5046206;28;20081;-76
2022/12/17 16:43:52;;;;;;;55.50;19.25;;;-1.10;99.90;;;;;;5030761;28;20080;-75
2022/12/17 16:46:32;;;;;;;55.20;19.37;;;-1.10;99.90;;;;;;5049992;28;20133;-75
2022/12/17 16:49:17;;;;;;;55.95;18.77;;;-1.10;99.90;;;;;;5029409;28;20617;-75
2022/12/17 16:51:44;;;;;;;58.33;18.50;;;-1.10;99.90;;;;;;5029110;28;20120;-76
2022/12/17 16:54:15;;;;;;;63.42;20.15;;;-1.00;99.90;;;;;;5028384;28;20072;-75
2022/12/17 16:56:43;;;;;;;52.90;17.45;;;-1.10;99.90;;;;;;5030746;28;20482;-76
2022/12/17 16:59:10;;;;;;;50.78;17.42;;;-1.10;99.90;;;;;;5025939;28;20044;-76
2022/12/17 17:01:37;;;;;;;57.50;19.73;;;-1.10;99.90;;;;;;5029660;28;20053;-77
2022/12/17 17:04:05;;;;;;;62.22;20.45;;;-1.10;99.90;;;;;;5032311;28;20042;-76
2022/12/17 17:06:31;;;;;;;50.03;16.75;;;-0.90;99.90;;;;;;5032370;28;20042;-76
2022/12/17 17:08:57;;;;;;;63.70;20.48;;;-1.10;99.90;;;;;;5015662;28;20037;-76
2022/12/17 17:11:24;;;;;;;55.83;18.38;;;-1.20;99.90;;;;;;5032535;28;20048;-77
2022/12/17 17:13:53;;;;;;;49.97;18.42;;;-0.60;99.90;;;;;;5015619;28;20041;-77
2022/12/17 17:16:22;;;;;;;49.95;16.90;;;-1.20;99.90;;;;;;5032208;28;20029;-77
2022/12/17 17:18:48;;;;;;;56.80;19.85;;;-1.20;99.90;;;;;;5015646;28;20033;-76
2022/12/17 17:21:37;;;;;;;55.40;17.90;;;-1.30;99.90;;;;;;5015444;28;20046;-79
2022/12/17 17:24:14;;;;;;;62.80;20.33;;;0.60;99.90;;;;;;5031829;28;20041;-77
2022/12/17 17:26:40;;;;;;;55.78;18.58;;;-1.30;99.90;;;;;;5032169;28;20433;-78
2022/12/17 17:29:06;;;;;;;48.60;18.08;;;-1.40;99.90;;;;;;5015121;28;20432;-77
2022/12/17 17:31:33;;;;;;;53.63;17.20;;;-1.40;99.90;;;;;;5015054;28;20041;-76
2022/12/17 17:33:58;;;;;;;;;;;-1.40;99.90;;;;;;5032459;28;20140;-77
2022/12/17 17:36:29;;;;;;;50.00;18.63;;;-0.30;99.90;;;;;;5031820;28;19968;-78
2022/12/17 17:38:57;;;;;;;70.40;20.55;;;-1.40;99.90;;;;;;5029778;28;20052;-76
2022/12/17 17:41:25;;;;;;;61.42;20.67;;;-0.70;99.90;;;;;;5043449;28;20129;-77
2022/12/17 17:44:03;;;;;;;68.30;21.58;;;-1.50;99.90;;;;;;5027569;28;20053;-77
2022/12/17 17:46:33;;;;;;;57.60;19.80;;;-1.40;99.90;;;;;;5016677;28;20119;-76
2022/12/17 17:49:01;;;;;;;50.03;17.50;;;-1.50;99.90;;;;;;5006594;28;20113;-77
2022/12/17 17:51:29;;;;;;;56.55;19.15;;;-1.50;99.90;;;;;;5023520;28;20160;-77
2022/12/17 17:53:55;;;;;;;54.92;18.58;;;-1.00;99.90;;;;;;5026029;28;20040;-77
2022/12/17 17:56:24;;;;;;;62.53;20.92;;;-1.50;99.90;;;;;;5044382;28;20108;-78
2022/12/17 17:58:57;;;;;;;66.38;20.65;;;-1.50;99.90;;;;;;5028193;28;20470;-76
2022/12/17 18:01:26;;;;;;;65.00;19.70;;;-1.40;99.90;;;;;;5022368;28;20108;-80
2022/12/17 18:03:53;;;;;;;70.15;20.02;;;-1.50;99.90;;;;;;5013754;28;20037;-79
2022/12/17 18:06:19;;;;;;;61.38;19.25;;;-1.50;99.90;;;;;;5011090;28;20117;-76
2022/12/17 18:08:45;;;;;;;54.60;18.10;;;-1.50;99.90;;;;;;5029033;28;20068;-76
2022/12/17 18:11:13;;;;;;;64.70;19.38;;;-1.50;99.90;;;;;;5022625;28;20034;-77
2022/12/17 18:13:54;;;;;;;52.50;18.20;;;-1.50;99.90;;;;;;5007183;28;20053;-75
2022/12/17 18:16:35;;;;;;;61.83;20.75;;;-1.50;99.90;;;;;;5021755;28;20049;-76
2022/12/17 18:19:06;;;;;;;61.67;18.90;;;-1.50;99.90;;;;;;5039977;28;20519;-76
2022/12/17 18:21:32;;;;;;;54.53;18.20;;;-1.50;99.90;;;;;;5023262;28;20075;-77
2022/12/17 18:24:01;;;;;;;65.22;21.95;;;-1.50;99.90;;;;;;5024974;28;20088;-77
2022/12/17 18:26:29;;;;;;;58.05;19.17;;;-1.50;99.90;;;;;;5025654;28;20056;-78
2022/12/17 18:28:57;;;;;;;68.38;20.60;;;-1.50;99.90;;;;;;5009615;28;20033;-75
2022/12/17 18:31:25;;;;;;;64.80;19.33;;;-1.60;99.90;;;;;;5020958;28;20103;-76
2022/12/17 18:33:54;;;;;;;66.88;20.92;;;-1.60;99.90;;;;;;5021472;28;20037;-76
2022/12/17 18:36:26;;;;;;;64.40;19.25;;;0.40;99.90;;;;;;5021194;28;20033;-75
2022/12/17 18:39:16;;;;;;;54.67;16.98;;;-1.60;99.90;;;;;;5020373;28;20037;-76
2022/12/17 18:44:41;;;;;;;60.42;19.40;;;-1.60;99.90;;;;;;5006721;28;20052;-76
2022/12/17 18:47:09;;;;;;;57.03;19.48;;;-1.70;99.90;;;;;;5026344;28;20440;-77
2022/12/17 18:49:35;;;;;;;59.25;17.58;;;-1.70;99.90;;;;;;5021903;28;20041;-75
2022/12/17 18:52:01;;;;;;;65.80;20.17;;;-1.70;99.90;;;;;;5037223;28;20187;-76
2022/12/17 18:54:28;;;;;;;53.47;19.60;;;-1.20;99.90;;;;;;5028120;28;20037;-76
2022/12/17 18:56:56;;;;;;;59.00;20.33;;;-1.80;99.90;;;;;;5027050;28;20124;-75
2022/12/17 18:59:25;;;;;;;67.32;20.83;;;-1.80;99.90;;;;;;5026460;28;20086;-77
2022/12/17 19:01:51;;;;;;;67.57;20.42;;;-1.80;99.90;;;;;;5021213;28;20493;-81
2022/12/17 19:04:19;;;;;;;62.88;19.27;;;-1.70;99.90;;;;;;5029569;28;20034;-80
2022/12/17 19:07:04;;;;;;;53.75;19.15;;;-1.80;99.90;;;;;;5013906;28;20515;-80
2022/12/17 19:09:34;;;;;;;53.38;18.73;;;-1.80;99.90;;;;;;5047099;28;20120;-82
2022/12/17 19:12:00;;;;;;;61.03;19.08;;;-1.70;99.90;;;;;;5013931;28;20044;-80
2022/12/17 19:14:26;;;;;;;54.20;17.38;;;-1.80;99.90;;;;;;5029640;28;20080;-81
2022/12/17 19:16:54;;;;;;;67.93;22.33;;;-1.50;99.90;;;;;;5030702;28;20030;-81
2022/12/17 19:19:21;;;;;;;65.05;19.50;;;-1.80;99.90;;;;;;5029803;28;20045;-81
2022/12/17 19:21:48;;;;;;;59.45;19.15;;;-1.80;99.90;;;;;;5013910;28;20033;-81
2022/12/17 19:24:16;;;;;;;69.55;23.05;;;-1.80;99.90;;;;;;5013652;28;20038;-81
2022/12/17 19:26:43;;;;;;;53.55;18.90;;;-1.60;99.90;;;;;;5011451;28;20037;-82
2022/12/17 19:29:11;;;;;;;63.13;20.20;;;-1.80;99.90;;;;;;5013695;28;20489;-81
2022/12/17 19:31:36;;;;;;;61.83;19.48;;;-1.50;99.90;;;;;;5013747;28;20041;-83
2022/12/17 19:34:04;;;;;;;70.00;20.85;;;-1.30;99.90;;;;;;5031056;28;20037;-84
2022/12/17 19:36:32;;;;;;;61.55;19.30;;;-1.50;99.90;;;;;;5030612;28;20091;-82
2022/12/17 19:39:01;;;;;;;64.97;19.48;;;-1.90;99.90;;;;;;5027564;28;20051;-82
2022/12/17 19:41:30;;;;;;;72.10;22.05;;;-2.00;99.90;;;;;;5030148;28;20057;-81
2022/12/17 19:43:59;;;;;;;64.93;20.42;;;-2.00;99.90;;;;;;5013373;28;20034;-81
2022/12/17 19:46:25;;;;;;;69.80;18.98;;;-1.90;99.90;;;;;;5030007;28;20045;-79
2022/12/17 19:48:52;;;;;;;67.43;20.98;;;-1.90;99.90;;;;;;5030225;28;20038;-81
2022/12/17 19:51:21;;;;;;;64.90;19.73;;;-1.90;99.90;;;;;;5029946;28;20571;-81
2022/12/17 19:53:48;;;;;;;58.50;23.92;;;-1.80;99.90;;;;;;5029923;28;20034;-80
2022/12/17 19:56:18;;;;;;;68.30;23.40;;;-1.70;99.90;;;;;;5026684;28;20038;-79
2022/12/17 19:58:45;;;;;;;57.47;22.55;;;-1.90;99.90;;;;;;5026262;28;20370;-82
2022/12/17 20:01:23;;;;;;;62.50;20.63;;;-1.20;99.90;;;;;;5012791;28;20048;-78
2022/12/17 20:03:50;;;;;;;49.35;19.08;;;-2.00;99.90;;;;;;5028121;28;20497;-79
2022/12/17 20:06:18;;;;;;;47.88;18.02;;;-1.90;99.90;;;;;;5029177;28;20046;-80
2022/12/17 20:08:44;;;;;;;65.95;23.23;;;-0.70;99.90;;;;;;5029560;28;20164;-81
2022/12/17 20:14:05;;;;;;;66.38;22.27;;;-1.90;99.90;;;;;;5028054;28;20094;-80
2022/12/17 20:16:33;;;;;;;59.25;20.27;;;-2.00;99.90;;;;;;5029495;28;20053;-82
2022/12/17 20:19:00;;;;;;;57.33;20.15;;;-2.00;99.90;;;;;;5029688;28;20520;-81
2022/12/17 20:21:26;;;;;;;59.15;21.90;;;-2.10;99.90;;;;;;5029230;28;20073;-80
2022/12/17 20:23:52;;;;;;;50.42;17.25;;;-2.10;99.90;;;;;;5013423;28;20131;-80
2022/12/17 20:26:18;;;;;;;61.75;20.23;;;-2.20;99.90;;;;;;5045499;28;20467;-79
2022/12/17 20:28:44;;;;;;;59.47;20.60;;;-1.10;99.90;;;;;;5010808;28;20098;-80
2022/12/17 20:31:11;;;;;;;60.97;21.30;;;-2.20;99.90;;;;;;5012791;28;20037;-81
2022/12/17 20:33:37;;;;;;;68.30;23.10;;;-2.30;99.90;;;;;;5031900;28;20489;-81
2022/12/17 20:36:11;;;;;;;52.40;19.80;;;-2.10;99.90;;;;;;5032930;28;20095;-81
2022/12/17 20:38:37;;;;;;;63.47;21.83;;;-2.30;99.90;;;;;;5029720;28;20045;-80
2022/12/17 20:41:12;;;;;;;70.90;21.80;;;-2.30;99.90;;;;;;5032695;28;20049;-80
2022/12/17 20:43:39;;;;;;;65.70;21.80;;;-1.70;99.90;;;;;;5029713;28;20095;-81
2022/12/17 20:46:06;;;;;;;58.22;21.67;;;-2.20;99.90;;;;;;5049501;28;20037;-82
2022/12/17 20:48:32;;;;;;;45.38;20.25;;;-2.40;99.90;;;;;;5016167;28;20037;-82
2022/12/17 20:50:57;;;;;;;68.85;22.67;;;-2.40;99.90;;;;;;5049773;28;20056;-81
2022/12/17 20:53:23;;;;;;;76.00;25.17;;;-1.90;99.90;;;;;;5049203;28;20551;-82
2022/12/17 20:55:59;;;;;;;73.72;24.70;;;-2.30;99.90;;;;;;5049663;28;20484;-80
2022/12/17 20:58:25;;;;;;;68.47;23.25;;;-1.60;99.90;;;;;;5013944;28;20045;-81
2022/12/17 21:00:51;;;;;;;66.40;25.77;;;-2.20;99.90;;;;;;5049852;28;20048;-81
2022/12/17 21:03:16;;;;;;;55.97;21.33;;;-2.10;99.90;;;;;;5032877;28;20116;-81
2022/12/17 21:05:42;;;;;;;71.82;25.15;;;-2.20;99.90;;;;;;5032558;28;20029;-81
2022/12/17 21:08:08;;;;;;;73.05;23.27;;;-2.30;99.90;;;;;;5047025;28;20132;-81
2022/12/17 21:10:33;;;;;;;73.88;25.33;;;-2.30;99.90;;;;;;5030812;28;20049;-81
2022/12/17 21:15:50;;;;;;;66.15;25.27;;;-2.30;99.90;;;;;;5030877;28;20460;-80
2022/12/17 21:18:15;;;;;;;61.00;20.95;;;-2.20;99.90;;;;;;5048640;28;20046;-81
2022/12/17 21:20:41;;;;;;;61.80;23.02;;;-2.40;99.90;;;;;;5015577;28;20385;-80
2022/12/17 21:23:07;;;;;;;77.55;24.88;;;-2.40;99.90;;;;;;5027112;28;20065;-81
2022/12/17 21:25:32;;;;;;;65.18;22.00;;;-2.30;99.90;;;;;;5048333;28;20099;-82
2022/12/17 21:27:59;;;;;;;81.50;26.83;;;-2.30;99.90;;;;;;5046844;28;20034;-80
2022/12/17 21:30:25;;;;;;;73.32;24.52;;;-2.30;99.90;;;;;;5047713;28;20493;-81
2022/12/17 21:32:50;;;;;;;82.90;27.35;;;-3.00;99.90;;;;;;5032585;28;20128;-81
2022/12/17 21:35:16;;;;;;;76.30;25.27;;;-2.30;99.90;;;;;;5049492;28;20041;-81
2022/12/17 21:37:42;;;;;;;69.35;23.75;;;-2.40;99.90;;;;;;5031860;28;20072;-81
2022/12/17 21:40:08;;;;;;;70.28;22.85;;;-2.40;99.90;;;;;;5031638;28;20064;-81
2022/12/17 21:45:18;;;;;;;69.20;23.35;;;-2.40;99.90;;;;;;5031288;28;20576;-80
2022/12/17 21:47:44;;;;;;;73.65;24.23;;;-2.40;99.90;;;;;;5031954;28;20049;-82
2022/12/17 21:50:09;;;;;;;66.70;23.90;;;-2.40;99.90;;;;;;5032105;28;20065;-83
2022/12/17 21:52:35;;;;;;;72.47;24.40;;;-2.40;99.90;;;;;;5048944;28;20041;-83
2022/12/17 21:55:00;;;;;;;55.33;19.53;;;-2.50;99.90;;;;;;4999402;28;20288;-81
2022/12/17 21:57:26;;;;;;;63.92;20.52;;;-2.50;99.90;;;;;;5032114;28;20363;-81
2022/12/17 21:59:52;;;;;;;66.47;22.05;;;-2.50;99.90;;;;;;5031765;28;20041;-81
2022/12/17 22:02:17;;;;;;;79.07;25.17;;;-2.40;99.90;;;;;;5048277;28;20038;-81
2022/12/17 22:04:43;;;;;;;67.75;23.05;;;-2.40;99.90;;;;;;5031818;28;20044;-83
2022/12/17 22:07:09;;;;;;;71.95;22.60;;;-2.40;99.90;;;;;;5031999;28;20029;-83
2022/12/17 22:09:34;;;;;;;75.55;24.27;;;-2.50;99.90;;;;;;5031594;28;20045;-83
2022/12/17 22:14:46;;;;;;;68.93;23.65;;;-2.50;99.90;;;;;;5030489;28;20171;-82
2022/12/17 22:17:11;;;;;;;83.05;23.35;;;-2.50;99.90;;;;;;5032682;28;20075;-82
2022/12/17 22:19:37;;;;;;;79.18;23.92;;;-2.50;99.90;;;;;;5017552;28;20489;-82
2022/12/17 22:22:03;;;;;;;79.05;23.13;;;-2.10;99.90;;;;;;5051685;28;20037;-82
2022/12/17 22:24:28;;;;;;;82.18;26.45;;;-2.60;99.90;;;;;;5032889;28;20033;-80
2022/12/17 22:26:58;;;;;;;75.55;24.65;;;-2.20;99.90;;;;;;5032703;28;20037;-80
2022/12/17 22:34:57;;;;;;;75.60;22.45;;;-2.50;99.90;;;;;;5030603;28;20762;-79
2022/12/17 22:37:23;;;;;;;62.35;20.05;;;-2.40;99.90;;;;;;4998022;28;20033;-80
2022/12/17 22:39:48;;;;;;;62.00;19.10;;;-1.40;99.90;;;;;;5030714;28;20033;-80
2022/12/17 22:45:15;;;;;;;71.45;23.45;;;-2.50;99.90;;;;;;4987494;28;20781;-80
2022/12/17 22:47:41;;;;;;;81.05;23.80;;;-2.50;99.90;;;;;;4977490;28;20076;-80
2022/12/17 22:50:07;;;;;;;70.32;22.85;;;-2.60;99.90;;;;;;5014061;28;20475;-80
2022/12/17 22:52:32;;;;;;;64.80;20.80;;;-2.60;99.90;;;;;;5030161;28;20045;-81
2022/12/17 22:54:58;;;;;;;74.32;23.13;;;-2.60;99.90;;;;;;5013658;28;20556;-78
2022/12/17 22:57:24;;;;;;;77.55;23.88;;;-0.40;99.90;;;;;;4997135;28;20048;-79
2022/12/17 22:59:49;;;;;;;81.97;25.08;;;-2.60;99.90;;;;;;5013750;28;20037;-81
2022/12/17 23:02:15;;;;;;;83.05;26.63;;;-1.20;99.90;;;;;;5013887;28;20041;-80
2022/12/17 23:04:41;;;;;;;79.50;24.30;;;-2.60;99.90;;;;;;5013429;28;20045;-80
2022/12/17 23:07:07;;;;;;;68.03;20.15;;;-2.70;99.90;;;;;;5014001;28;20545;-80
2022/12/17 23:09:33;;;;;;;76.07;22.85;;;-2.70;99.90;;;;;;5030069;28;20202;-81
2022/12/17 23:12:49;;;;;;;57.97;18.95;;;-2.60;99.90;;;;;;5014267;28;20120;-80
2022/12/17 23:14:47;;;;;;;87.30;26.25;;;-2.70;99.90;;;;;;5029969;28;20049;-80
2022/12/17 23:17:13;;;;;;;89.53;23.73;;;-2.80;99.90;;;;;;4997433;28;20057;-80
2022/12/17 23:19:38;;;;;;;88.15;26.08;;;-2.70;99.90;;;;;;5013316;28;20470;-80
2022/12/17 23:22:04;;;;;;;85.13;23.27;;;-2.70;99.90;;;;;;5030258;28;20041;-80
2022/12/17 23:24:30;;;;;;;65.40;21.05;;;-2.80;99.90;;;;;;5013014;28;20120;-80
2022/12/17 23:26:56;;;;;;;87.45;24.55;;;-2.20;99.90;;;;;;5029850;28;20409;-80
2022/12/17 23:29:21;;;;;;;68.55;21.90;;;-2.80;99.90;;;;;;5029695;28;20405;-80
2022/12/17 23:31:47;;;;;;;81.78;23.50;;;-2.80;99.90;;;;;;5013242;28;20072;-80
2022/12/17 23:34:13;;;;;;;78.68;23.33;;;-0.60;99.90;;;;;;5013543;28;20033;-80
2022/12/17 23:36:39;;;;;;;66.68;19.33;;;-1.30;99.90;;;;;;5013718;28;20080;-80
2022/12/17 23:39:05;;;;;;;81.47;23.08;;;-2.80;99.90;;;;;;5014406;28;20041;-80
2022/12/17 23:41:31;;;;;;;;;;;-2.70;99.90;;;;;;5030414;28;20104;-80
2022/12/17 23:43:59;;;;;;;72.38;22.10;;;-2.70;99.90;;;;;;5014612;28;19952;-81
2022/12/17 23:46:27;;;;;;;77.35;22.38;;;-2.70;99.90;;;;;;5029781;28;20069;-78
2022/12/17 23:48:53;;;;;;;72.75;20.58;;;-2.80;99.90;;;;;;5030365;28;20095;-80
2022/12/17 23:51:20;;;;;;;90.50;25.42;;;-1.10;99.90;;;;;;5013453;28;20045;-80
2022/12/17 23:53:46;;;;;;;73.10;22.27;;;-2.80;99.90;;;;;;4996909;28;20055;-80
2022/12/17 23:56:14;;;;;;;75.45;22.02;;;-2.80;99.90;;;;;;4997172;28;20045;-78
2022/12/17 23:58:42;;;;;;;72.55;22.25;;;-2.70;99.90;;;;;;5013082;28;20481;-80
